createdAt,value
2018-10-18T00:00:10.707Z,32.67
2018-10-18T00:01:14.665Z,31.57
2018-10-18T00:02:18.801Z,32.40
2018-10-18T00:03:22.771Z,32.88
2018-10-18T00:04:26.830Z,33.45
2018-10-18T00:05:30.972Z,33.83
2018-10-18T00:06:34.974Z,35.78
2018-10-18T00:07:39.084Z,31.93
2018-10-18T00:08:43.100Z,32.00
2018-10-18T00:09:47.121Z,33.50
2018-10-18T00:10:51.081Z,31.65
2018-10-18T00:11:55.158Z,36.05
2018-10-18T00:12:59.300Z,33.55
2018-10-18T00:14:03.412Z,32.88
2018-10-18T00:15:08.001Z,31.80
2018-10-18T00:16:12.223Z,32.23
2018-10-18T00:17:21.485Z,31.48
2018-10-18T00:18:25.635Z,33.75
2018-10-18T00:19:29.775Z,32.00
2018-10-18T00:20:33.861Z,31.35
2018-10-18T00:23:06.407Z,32.20
2018-10-18T00:24:10.412Z,32.88
2018-10-18T00:25:14.869Z,32.50
2018-10-18T00:26:18.876Z,32.65
2018-10-18T00:27:22.991Z,30.92
2018-10-18T00:28:26.973Z,30.95
2018-10-18T00:29:31.043Z,31.93
2018-10-18T00:30:35.048Z,35.88
2018-10-18T00:31:39.145Z,32.23
2018-10-18T00:32:44.139Z,31.10
2018-10-18T00:33:48.272Z,33.05
2018-10-18T00:34:52.355Z,33.00
2018-10-18T00:35:56.410Z,34.30
2018-10-18T00:37:00.403Z,32.70
2018-10-18T00:38:04.460Z,31.68
2018-10-18T00:39:11.780Z,34.38
2018-10-18T00:40:15.935Z,31.62
2018-10-18T00:41:19.983Z,33.13
2018-10-18T00:42:24.044Z,32.33
2018-10-18T00:43:28.336Z,31.10
2018-10-18T00:44:32.357Z,32.33
2018-10-18T00:45:36.376Z,32.10
2018-10-18T00:46:40.402Z,32.42
2018-10-18T00:47:44.468Z,33.73
2018-10-18T00:48:48.625Z,34.50
2018-10-18T00:49:52.691Z,29.52
2018-10-18T00:50:56.699Z,31.45
2018-10-18T00:52:00.762Z,32.93
2018-10-18T00:53:05.063Z,32.70
2018-10-18T00:54:09.364Z,31.97
2018-10-18T00:55:13.313Z,33.13
2018-10-18T00:56:17.415Z,33.28
2018-10-18T00:57:21.475Z,33.42
2018-10-18T00:58:25.773Z,34.33
2018-10-18T00:59:29.773Z,33.00
2018-10-18T01:00:33.897Z,32.35
2018-10-18T01:01:37.878Z,31.20
2018-10-18T01:02:41.872Z,32.20
2018-10-18T01:03:46.046Z,31.60
2018-10-18T01:04:50.090Z,31.05
2018-10-18T01:05:54.212Z,31.60
2018-10-18T01:06:58.550Z,30.30
2018-10-18T01:08:02.682Z,27.37
2018-10-18T01:09:07.982Z,31.97
2018-10-18T01:10:11.971Z,29.18
2018-10-18T01:11:15.948Z,29.65
2018-10-18T01:12:20.099Z,33.18
2018-10-18T01:13:24.137Z,30.88
2018-10-18T01:14:28.410Z,32.93
2018-10-18T01:15:32.510Z,27.95
2018-10-18T01:16:36.557Z,32.50
2018-10-18T01:17:40.629Z,30.68
2018-10-18T01:18:44.866Z,32.00
2018-10-18T01:19:48.928Z,32.70
2018-10-18T01:20:52.958Z,30.52
2018-10-18T01:21:56.959Z,29.10
2018-10-18T01:23:00.929Z,29.63
2018-10-18T01:24:05.501Z,29.27
2018-10-18T01:25:09.557Z,30.80
2018-10-18T01:26:13.616Z,31.75
2018-10-18T01:27:17.668Z,32.48
2018-10-18T01:28:21.777Z,33.15
2018-10-18T01:29:26.244Z,30.23
2018-10-18T01:30:30.367Z,30.43
2018-10-18T01:31:34.425Z,29.98
2018-10-18T01:32:38.529Z,30.50
2018-10-18T01:33:42.750Z,27.55
2018-10-18T01:34:46.798Z,30.85
2018-10-18T01:35:50.876Z,30.57
2018-10-18T01:36:54.961Z,32.05
2018-10-18T01:37:59.046Z,31.50
2018-10-18T01:39:03.037Z,30.97
2018-10-18T01:40:07.225Z,28.95
2018-10-18T01:41:11.255Z,32.85
2018-10-18T01:42:15.387Z,30.25
2018-10-18T01:43:19.408Z,31.27
2018-10-18T01:44:23.797Z,33.30
2018-10-18T01:45:28.043Z,30.65
2018-10-18T01:46:32.188Z,29.10
2018-10-18T01:47:36.181Z,30.15
2018-10-18T01:48:40.262Z,30.10
2018-10-18T01:49:44.277Z,30.00
2018-10-18T01:50:48.253Z,32.45
2018-10-18T01:51:52.252Z,31.23
2018-10-18T01:52:56.261Z,30.15
2018-10-18T01:54:00.435Z,31.37
2018-10-18T01:55:05.562Z,31.02
2018-10-18T01:56:09.725Z,32.90
2018-10-18T01:57:13.711Z,34.63
2018-10-18T01:58:17.719Z,33.35
2018-10-18T01:59:21.797Z,30.50
2018-10-18T02:00:25.788Z,35.78
2018-10-18T02:01:30.486Z,33.92
2018-10-18T02:02:34.513Z,32.73
2018-10-18T02:03:38.528Z,36.03
2018-10-18T02:04:42.666Z,34.03
2018-10-18T02:05:46.652Z,34.92
2018-10-18T02:06:50.709Z,35.92
2018-10-18T02:07:54.859Z,31.00
2018-10-18T02:08:58.823Z,33.73
2018-10-18T02:10:02.960Z,33.05
2018-10-18T02:11:07.308Z,33.70
2018-10-18T02:12:11.490Z,29.10
2018-10-18T02:13:15.430Z,35.40
2018-10-18T02:14:19.520Z,35.83
2018-10-18T02:15:23.512Z,34.88
2018-10-18T02:16:27.535Z,32.85
2018-10-18T02:17:31.708Z,36.63
2018-10-18T02:18:35.700Z,36.83
2018-10-18T02:19:40.016Z,37.08
2018-10-18T02:20:44.011Z,35.98
2018-10-18T02:21:48.029Z,37.58
2018-10-18T02:22:52.710Z,38.90
2018-10-18T02:23:56.899Z,35.23
2018-10-18T02:25:01.011Z,38.08
2018-10-18T02:26:04.992Z,35.52
2018-10-18T02:27:09.205Z,38.92
2018-10-18T02:28:13.412Z,37.55
2018-10-18T02:29:17.448Z,38.28
2018-10-18T02:30:21.583Z,34.33
2018-10-18T02:31:25.621Z,36.50
2018-10-18T02:32:29.915Z,35.92
2018-10-18T02:33:33.941Z,37.53
2018-10-18T02:34:37.972Z,39.18
2018-10-18T02:35:42.103Z,37.90
2018-10-18T02:36:46.160Z,37.73
2018-10-18T02:37:50.216Z,36.53
2018-10-18T02:38:54.265Z,36.35
2018-10-18T02:39:58.307Z,35.15
2018-10-18T02:41:02.313Z,36.70
2018-10-18T02:42:06.588Z,34.38
2018-10-18T02:43:10.627Z,36.40
2018-10-18T02:44:14.672Z,37.40
2018-10-18T02:45:18.741Z,35.75
2018-10-18T02:46:22.802Z,34.50
2018-10-18T02:47:26.905Z,35.52
2018-10-18T02:48:31.012Z,37.08
2018-10-18T02:49:35.067Z,35.35
2018-10-18T02:50:39.110Z,37.35
2018-10-18T02:51:43.209Z,34.78
2018-10-18T02:52:47.356Z,37.40
2018-10-18T02:53:51.407Z,36.85
2018-10-18T02:54:55.399Z,35.10
2018-10-18T02:55:59.513Z,36.75
2018-10-18T02:57:03.497Z,36.45
2018-10-18T02:58:07.529Z,35.15
2018-10-18T02:59:11.525Z,37.13
2018-10-18T03:00:15.606Z,36.53
2018-10-18T03:01:19.553Z,35.52
2018-10-18T03:02:23.593Z,36.30
2018-10-18T03:03:27.625Z,34.03
2018-10-18T03:04:31.652Z,33.40
2018-10-18T03:05:35.664Z,34.40
2018-10-18T03:06:39.697Z,36.33
2018-10-18T03:07:43.796Z,37.10
2018-10-18T03:08:47.821Z,36.35
2018-10-18T03:09:51.867Z,37.95
2018-10-18T03:10:55.920Z,35.40
2018-10-18T03:12:00.093Z,38.38
2018-10-18T03:13:04.055Z,34.90
2018-10-18T03:14:08.176Z,36.17
2018-10-18T03:15:12.220Z,35.33
2018-10-18T03:16:16.288Z,36.73
2018-10-18T03:17:20.427Z,35.85
2018-10-18T03:18:24.433Z,34.15
2018-10-18T03:19:28.511Z,34.70
2018-10-18T03:20:32.871Z,38.10
2018-10-18T03:21:36.924Z,37.25
2018-10-18T03:22:42.591Z,37.05
2018-10-18T03:23:46.618Z,34.60
2018-10-18T03:24:50.680Z,35.30
2018-10-18T03:25:54.709Z,37.35
2018-10-18T03:26:58.797Z,34.50
2018-10-18T03:28:03.104Z,35.80
2018-10-18T03:29:07.091Z,35.10
2018-10-18T03:30:11.104Z,36.20
2018-10-18T03:31:15.182Z,34.98
2018-10-18T03:32:19.662Z,36.00
2018-10-18T03:33:23.684Z,35.13
2018-10-18T03:34:27.753Z,35.05
2018-10-18T03:35:31.831Z,36.17
2018-10-18T03:36:35.929Z,34.88
2018-10-18T03:37:39.929Z,35.20
2018-10-18T03:38:43.960Z,32.45
2018-10-18T03:39:47.997Z,33.63
2018-10-18T03:40:52.028Z,31.12
2018-10-18T03:41:56.074Z,34.67
2018-10-18T03:43:00.033Z,34.67
2018-10-18T03:44:04.629Z,35.00
2018-10-18T03:45:08.659Z,31.80
2018-10-18T03:46:12.752Z,33.45
2018-10-18T03:47:16.822Z,33.18
2018-10-18T03:48:20.946Z,32.93
2018-10-18T03:49:24.943Z,35.50
2018-10-18T03:50:28.927Z,33.50
2018-10-18T03:51:33.197Z,32.20
2018-10-18T03:52:37.189Z,32.28
2018-10-18T03:53:41.313Z,32.67
2018-10-18T03:54:45.449Z,32.75
2018-10-18T03:55:49.652Z,32.73
2018-10-18T03:56:53.692Z,32.58
2018-10-18T03:57:57.856Z,30.75
2018-10-18T03:59:01.876Z,31.27
2018-10-18T04:00:07.034Z,30.43
2018-10-18T04:01:11.037Z,32.50
2018-10-18T04:02:15.047Z,32.00
2018-10-18T04:03:19.262Z,31.70
2018-10-18T04:04:23.325Z,32.00
2018-10-18T04:05:27.484Z,32.23
2018-10-18T04:06:31.465Z,31.07
2018-10-18T04:07:35.586Z,30.10
2018-10-18T04:08:39.639Z,32.90
2018-10-18T04:09:43.686Z,30.35
2018-10-18T04:10:47.831Z,32.17
2018-10-18T04:11:51.866Z,31.68
2018-10-18T04:12:55.967Z,29.98
2018-10-18T04:13:59.896Z,29.42
2018-10-18T04:15:03.937Z,29.18
2018-10-18T04:16:08.030Z,29.12
2018-10-18T04:17:12.024Z,32.30
2018-10-18T04:18:16.255Z,31.87
2018-10-18T04:19:20.467Z,31.97
2018-10-18T04:20:24.494Z,31.20
2018-10-18T04:21:28.744Z,30.60
2018-10-18T04:22:32.731Z,27.37
2018-10-18T04:23:37.040Z,33.13
2018-10-18T04:24:41.068Z,31.35
2018-10-18T04:25:45.180Z,32.05
2018-10-18T04:26:49.628Z,27.90
2018-10-18T04:27:53.706Z,30.37
2018-10-18T04:28:57.699Z,31.12
2018-10-18T04:30:01.747Z,32.15
2018-10-18T04:31:05.803Z,30.82
2018-10-18T04:32:09.843Z,30.15
2018-10-18T04:33:13.842Z,29.52
2018-10-18T04:34:17.828Z,31.68
2018-10-18T04:35:21.939Z,32.35
2018-10-18T04:36:26.008Z,33.05
2018-10-18T04:37:30.237Z,31.95
2018-10-18T04:38:34.293Z,29.98
2018-10-18T04:39:38.474Z,30.23
2018-10-18T04:40:42.507Z,30.65
2018-10-18T04:41:46.556Z,31.45
2018-10-18T04:42:50.609Z,30.35
2018-10-18T04:43:54.625Z,30.92
2018-10-18T04:44:58.661Z,32.65
2018-10-18T04:46:02.606Z,32.58
2018-10-18T04:47:07.004Z,30.50
2018-10-18T04:48:11.232Z,29.23
2018-10-18T04:49:15.249Z,28.92
2018-10-18T04:50:19.316Z,30.68
2018-10-18T04:51:24.963Z,29.85
2018-10-18T04:52:29.008Z,29.92
2018-10-18T04:53:33.147Z,30.35
2018-10-18T04:54:37.190Z,28.62
2018-10-18T04:55:41.252Z,28.65
2018-10-18T04:56:45.429Z,30.27
2018-10-18T04:57:49.545Z,31.02
2018-10-18T04:58:53.566Z,32.70
2018-10-18T04:59:57.612Z,33.00
2018-10-18T05:01:01.681Z,29.92
2018-10-18T05:02:05.713Z,28.77
2018-10-18T05:03:09.734Z,30.45
2018-10-18T05:04:13.809Z,29.77
2018-10-18T05:05:29.241Z,30.75
2018-10-18T05:06:33.260Z,31.73
2018-10-18T05:07:37.341Z,30.30
2018-10-18T05:08:41.547Z,34.03
2018-10-18T05:09:45.568Z,29.63
2018-10-18T05:10:49.716Z,30.52
2018-10-18T05:11:53.850Z,31.52
2018-10-18T05:12:57.976Z,31.73
2018-10-18T05:14:02.008Z,28.05
2018-10-18T05:15:06.832Z,31.07
2018-10-18T05:16:10.909Z,31.65
2018-10-18T05:17:15.027Z,29.85
2018-10-18T05:18:19.385Z,31.07
2018-10-18T05:19:23.414Z,31.12
2018-10-18T05:20:27.496Z,31.10
2018-10-18T05:21:31.607Z,30.35
2018-10-18T05:22:35.628Z,31.80
2018-10-18T05:23:39.656Z,30.02
2018-10-18T05:24:43.696Z,31.57
2018-10-18T05:25:48.839Z,30.82
2018-10-18T05:26:52.896Z,31.42
2018-10-18T05:27:56.943Z,29.82
2018-10-18T05:29:01.023Z,30.20
2018-10-18T05:30:05.622Z,31.05
2018-10-18T05:31:09.710Z,29.12
2018-10-18T05:32:13.747Z,29.90
2018-10-18T05:33:17.807Z,29.70
2018-10-18T05:34:21.807Z,27.70
2018-10-18T05:35:26.035Z,31.90
2018-10-18T05:36:30.069Z,31.05
2018-10-18T05:37:34.268Z,30.57
2018-10-18T05:38:38.263Z,27.85
2018-10-18T05:39:42.343Z,27.90
2018-10-18T05:40:46.636Z,28.62
2018-10-18T05:41:50.770Z,31.40
2018-10-18T05:42:54.855Z,29.18
2018-10-18T05:43:58.906Z,29.57
2018-10-18T05:45:02.925Z,31.02
2018-10-18T05:46:06.928Z,29.75
2018-10-18T05:47:10.984Z,28.52
2018-10-18T05:48:15.035Z,30.35
2018-10-18T05:49:19.217Z,30.90
2018-10-18T05:50:23.096Z,28.70
2018-10-18T05:51:27.191Z,27.77
2018-10-18T05:52:31.289Z,29.15
2018-10-18T05:53:35.423Z,30.72
2018-10-18T05:54:39.363Z,29.82
2018-10-18T05:55:43.438Z,29.52
2018-10-18T05:56:47.560Z,29.75
2018-10-18T05:57:51.539Z,29.40
2018-10-18T05:58:55.623Z,28.95
2018-10-18T05:59:59.657Z,28.42
2018-10-18T06:01:03.668Z,29.00
2018-10-18T06:02:08.058Z,27.87
2018-10-18T06:03:12.604Z,27.65
2018-10-18T06:04:16.907Z,29.12
2018-10-18T06:05:20.908Z,28.23
2018-10-18T06:06:24.961Z,29.35
2018-10-18T06:07:29.655Z,28.25
2018-10-18T06:08:33.657Z,29.30
2018-10-18T06:09:37.673Z,30.60
2018-10-18T06:10:53.209Z,29.75
2018-10-18T06:11:57.184Z,26.97
2018-10-18T06:13:01.276Z,28.75
2018-10-18T06:14:05.494Z,31.12
2018-10-18T06:15:09.662Z,28.80
2018-10-18T06:16:13.678Z,28.67
2018-10-18T06:17:17.687Z,27.85
2018-10-18T06:18:21.737Z,29.18
2018-10-18T06:19:25.915Z,29.18
2018-10-18T06:20:29.912Z,30.30
2018-10-18T06:21:34.162Z,27.75
2018-10-18T06:22:38.406Z,26.30
2018-10-18T06:23:42.452Z,28.65
2018-10-18T06:24:46.624Z,29.12
2018-10-18T06:25:50.678Z,26.42
2018-10-18T06:26:54.740Z,28.50
2018-10-18T06:27:59.173Z,28.55
2018-10-18T06:29:03.429Z,27.65
2018-10-18T06:30:09.587Z,28.92
2018-10-18T06:31:13.655Z,29.82
2018-10-18T06:32:17.773Z,28.60
2018-10-18T06:33:21.752Z,30.00
2018-10-18T06:34:25.825Z,29.40
2018-10-18T06:35:30.019Z,29.95
2018-10-18T06:36:34.142Z,28.62
2018-10-18T06:37:38.409Z,28.55
2018-10-18T06:38:42.410Z,30.40
2018-10-18T06:39:46.437Z,31.35
2018-10-18T06:40:50.505Z,29.55
2018-10-18T06:41:54.559Z,29.50
2018-10-18T06:42:58.545Z,30.23
2018-10-18T06:44:02.617Z,28.47
2018-10-18T06:45:07.936Z,27.20
2018-10-18T06:46:13.272Z,28.40
2018-10-18T06:47:17.284Z,29.05
2018-10-18T06:48:21.272Z,27.10
2018-10-18T06:49:25.386Z,28.77
2018-10-18T06:50:29.385Z,29.25
2018-10-18T06:51:33.459Z,29.02
2018-10-18T06:52:37.599Z,28.87
2018-10-18T06:53:42.216Z,29.12
2018-10-18T06:54:46.259Z,32.08
2018-10-18T06:55:50.420Z,32.00
2018-10-18T06:56:54.505Z,31.07
2018-10-18T06:57:58.448Z,28.07
2018-10-18T06:59:02.499Z,31.48
2018-10-18T07:00:12.697Z,31.77
2018-10-18T07:01:16.735Z,29.70
2018-10-18T07:02:20.849Z,27.60
2018-10-18T07:03:24.855Z,29.75
2018-10-18T07:04:28.986Z,29.63
2018-10-18T07:05:33.004Z,27.98
2018-10-18T07:06:36.982Z,28.42
2018-10-18T07:07:42.141Z,30.40
2018-10-18T07:08:46.232Z,30.92
2018-10-18T07:09:50.219Z,29.50
2018-10-18T07:10:54.251Z,29.60
2018-10-18T07:11:58.195Z,28.92
2018-10-18T07:13:02.260Z,29.72
2018-10-18T07:14:06.313Z,29.80
2018-10-18T07:15:11.168Z,28.30
2018-10-18T07:16:15.251Z,28.10
2018-10-18T07:17:19.579Z,29.25
2018-10-18T07:18:23.579Z,28.70
2018-10-18T07:19:27.741Z,28.60
2018-10-18T07:20:31.730Z,28.52
2018-10-18T07:21:36.049Z,26.52
2018-10-18T07:22:40.476Z,27.02
2018-10-18T07:23:44.572Z,28.00
2018-10-18T07:24:48.632Z,27.98
2018-10-18T07:25:59.366Z,25.72
2018-10-18T07:27:03.416Z,28.20
2018-10-18T07:28:07.380Z,26.52
2018-10-18T07:29:11.527Z,26.87
2018-10-18T07:30:15.979Z,23.40
2018-10-18T07:31:19.910Z,25.68
2018-10-18T07:32:24.119Z,32.35
2018-10-18T07:33:28.235Z,26.12
2018-10-18T07:34:32.422Z,23.40
2018-10-18T07:35:36.392Z,27.02
2018-10-18T07:36:40.456Z,25.62
2018-10-18T07:37:44.504Z,25.60
2018-10-18T07:38:48.614Z,26.30
2018-10-18T07:39:52.675Z,27.30
2018-10-18T07:40:56.760Z,24.98
2018-10-18T07:42:00.813Z,26.15
2018-10-18T07:43:04.936Z,25.05
2018-10-18T07:44:09.347Z,25.85
2018-10-18T07:45:14.346Z,26.25
2018-10-18T07:46:18.538Z,27.50
2018-10-18T07:47:22.616Z,26.30
2018-10-18T07:48:26.642Z,25.60
2018-10-18T07:49:30.757Z,25.82
2018-10-18T07:50:35.003Z,24.55
2018-10-18T07:51:39.079Z,24.92
2018-10-18T07:52:43.251Z,24.30
2018-10-18T07:53:47.308Z,24.87
2018-10-18T07:54:51.433Z,24.70
2018-10-18T07:55:55.715Z,26.95
2018-10-18T07:56:59.701Z,24.98
2018-10-18T07:58:03.756Z,25.05
2018-10-18T07:59:07.787Z,24.45
2018-10-18T08:00:13.589Z,23.47
2018-10-18T08:01:17.361Z,23.35
2018-10-18T08:02:21.365Z,23.02
2018-10-18T08:03:27.760Z,25.70
2018-10-18T08:04:31.853Z,22.65
2018-10-18T08:05:35.949Z,23.52
2018-10-18T08:06:40.014Z,22.58
2018-10-18T08:07:44.025Z,24.90
2018-10-18T08:08:48.098Z,23.15
2018-10-18T08:09:52.184Z,24.27
2018-10-18T08:10:56.282Z,26.62
2018-10-18T08:12:00.272Z,23.90
2018-10-18T08:13:04.783Z,25.08
2018-10-18T08:14:08.881Z,24.05
2018-10-18T08:15:14.127Z,24.18
2018-10-18T08:16:18.215Z,23.25
2018-10-18T08:17:22.463Z,23.60
2018-10-18T08:18:26.401Z,23.00
2018-10-18T08:19:30.471Z,22.17
2018-10-18T08:20:34.510Z,22.55
2018-10-18T08:21:38.697Z,20.05
2018-10-18T08:22:43.313Z,19.85
2018-10-18T08:23:47.280Z,21.02
2018-10-18T08:24:51.314Z,20.30
2018-10-18T08:25:55.324Z,19.92
2018-10-18T08:26:59.389Z,18.87
2018-10-18T08:28:03.469Z,19.15
2018-10-18T08:29:07.510Z,20.82
2018-10-18T08:30:12.937Z,20.52
2018-10-18T08:31:17.129Z,18.12
2018-10-18T08:32:21.062Z,20.57
2018-10-18T08:33:25.557Z,19.95
2018-10-18T08:34:29.750Z,19.50
2018-10-18T08:35:33.724Z,19.55
2018-10-18T08:36:37.829Z,20.97
2018-10-18T08:37:42.052Z,21.05
2018-10-18T08:38:45.941Z,19.90
2018-10-18T08:39:50.089Z,21.10
2018-10-18T08:40:56.985Z,20.00
2018-10-18T08:42:01.117Z,20.43
2018-10-18T08:43:05.238Z,21.12
2018-10-18T08:44:09.270Z,21.02
2018-10-18T08:45:13.241Z,21.10
2018-10-18T08:46:17.375Z,21.93
2018-10-18T08:47:21.581Z,21.90
2018-10-18T08:48:25.626Z,22.50
2018-10-18T08:49:29.859Z,23.38
2018-10-18T08:50:33.903Z,21.15
2018-10-18T08:51:37.995Z,20.77
2018-10-18T08:52:41.982Z,22.35
2018-10-18T08:53:45.968Z,22.25
2018-10-18T08:54:49.973Z,20.12
2018-10-18T08:55:53.996Z,22.40
2018-10-18T08:56:57.992Z,21.50
2018-10-18T08:58:02.096Z,21.70
2018-10-18T08:59:06.443Z,21.60
2018-10-18T09:00:11.599Z,20.80
2018-10-18T09:01:15.655Z,22.13
2018-10-18T09:02:19.569Z,21.12
2018-10-18T09:03:23.556Z,21.73
2018-10-18T09:04:27.602Z,21.48
2018-10-18T09:05:31.605Z,21.40
2018-10-18T09:06:35.656Z,22.20
2018-10-18T09:07:39.816Z,21.05
2018-10-18T09:08:43.947Z,24.67
2018-10-18T09:09:48.032Z,22.90
2018-10-18T09:10:52.048Z,23.38
2018-10-18T09:11:56.099Z,21.45
2018-10-18T09:13:00.224Z,24.82
2018-10-18T09:14:05.132Z,24.82
2018-10-18T09:15:09.656Z,22.93
2018-10-18T09:16:13.796Z,24.47
2018-10-18T09:17:17.787Z,24.02
2018-10-18T09:18:22.105Z,23.60
2018-10-18T09:19:26.125Z,23.20
2018-10-18T09:20:30.275Z,21.87
2018-10-18T09:21:34.526Z,24.92
2018-10-18T09:22:38.628Z,24.92
2018-10-18T09:23:42.880Z,24.00
2018-10-18T09:24:46.914Z,22.40
2018-10-18T09:25:50.976Z,21.48
2018-10-18T09:26:55.031Z,19.75
2018-10-18T09:27:59.033Z,21.82
2018-10-18T09:29:03.037Z,21.35
2018-10-18T09:30:08.555Z,22.90
2018-10-18T09:31:12.608Z,24.80
2018-10-18T09:32:16.614Z,25.72
2018-10-18T09:33:20.615Z,23.38
2018-10-18T09:34:24.671Z,22.17
2018-10-18T09:35:28.741Z,21.45
2018-10-18T09:36:32.717Z,19.20
2018-10-18T09:37:36.779Z,20.62
2018-10-18T09:38:41.244Z,21.45
2018-10-18T09:39:44.837Z,20.43
2018-10-18T09:40:48.977Z,19.48
2018-10-18T09:41:53.020Z,19.50
2018-10-18T09:42:57.179Z,18.25
2018-10-18T09:44:04.342Z,20.02
2018-10-18T09:45:10.262Z,19.05
2018-10-18T09:46:14.257Z,19.30
2018-10-18T09:47:18.338Z,19.45
2018-10-18T09:48:22.419Z,19.50
2018-10-18T09:49:26.440Z,18.37
2018-10-18T09:50:30.620Z,19.02
2018-10-18T09:51:35.447Z,19.17
2018-10-18T09:52:39.805Z,18.95
2018-10-18T09:53:44.913Z,18.73
2018-10-18T09:54:48.964Z,17.60
2018-10-18T09:55:53.017Z,19.50
2018-10-18T09:56:57.206Z,18.27
2018-10-18T09:58:01.227Z,17.07
2018-10-18T09:59:05.627Z,18.30
2018-10-18T10:00:15.105Z,20.57
2018-10-18T10:01:24.620Z,17.80
2018-10-18T10:02:34.051Z,18.07
2018-10-18T10:03:38.108Z,19.40
2018-10-18T10:04:42.130Z,19.07
2018-10-18T10:05:46.239Z,19.87
2018-10-18T10:06:50.210Z,19.40
2018-10-18T10:07:54.323Z,18.87
2018-10-18T10:08:58.384Z,19.65
2018-10-18T10:10:02.368Z,19.87
2018-10-18T10:11:06.634Z,18.65
2018-10-18T10:12:10.653Z,20.40
2018-10-18T10:13:14.753Z,21.37
2018-10-18T10:14:18.674Z,21.02
2018-10-18T10:15:22.765Z,21.60
2018-10-18T10:16:26.795Z,22.35
2018-10-18T10:17:30.889Z,22.50
2018-10-18T10:18:34.880Z,21.23
2018-10-18T10:19:38.893Z,22.42
2018-10-18T10:20:42.940Z,21.50
2018-10-18T10:21:47.174Z,21.85
2018-10-18T10:22:51.331Z,21.07
2018-10-18T10:23:55.376Z,23.18
2018-10-18T10:24:59.428Z,21.60
2018-10-18T10:26:03.793Z,22.67
2018-10-18T10:27:08.014Z,20.32
2018-10-18T10:28:12.071Z,21.97
2018-10-18T10:29:16.081Z,20.10
2018-10-18T10:30:20.146Z,20.30
2018-10-18T10:31:24.208Z,19.02
2018-10-18T10:32:28.298Z,20.05
2018-10-18T10:33:32.322Z,19.00
2018-10-18T10:34:36.323Z,20.48
2018-10-18T10:35:40.393Z,19.65
2018-10-18T10:36:44.350Z,19.20
2018-10-18T10:37:48.440Z,17.42
2018-10-18T10:38:52.496Z,16.77
2018-10-18T10:39:56.617Z,18.35
2018-10-18T10:41:00.753Z,17.10
2018-10-18T10:42:05.452Z,16.15
2018-10-18T10:43:09.483Z,16.27
2018-10-18T10:44:13.723Z,16.37
2018-10-18T10:45:17.630Z,14.18
2018-10-18T10:46:21.815Z,16.17
2018-10-18T10:47:25.689Z,16.17
2018-10-18T10:48:29.768Z,14.70
2018-10-18T10:49:33.781Z,15.35
2018-10-18T10:50:37.877Z,12.75
2018-10-18T10:51:42.080Z,12.65
2018-10-18T10:52:46.237Z,13.60
2018-10-18T10:53:50.311Z,11.63
2018-10-18T10:54:54.359Z,12.23
2018-10-18T10:55:58.349Z,12.33
2018-10-18T10:57:02.352Z,10.30
2018-10-18T10:58:06.702Z,8.70
2018-10-18T10:59:14.734Z,9.00
2018-10-18T11:01:23.425Z,7.55
2018-10-18T11:02:27.476Z,7.53
2018-10-18T11:03:31.528Z,7.60
2018-10-18T11:04:35.521Z,6.78
2018-10-18T11:05:39.675Z,6.25
2018-10-18T11:06:43.652Z,5.70
2018-10-18T11:07:47.879Z,5.45
2018-10-18T11:08:51.870Z,5.42
2018-10-18T11:09:55.942Z,5.62
2018-10-18T11:10:59.977Z,5.30
2018-10-18T11:12:04.148Z,4.78
2018-10-18T11:13:08.158Z,5.22
2018-10-18T11:14:12.219Z,5.75
2018-10-18T11:15:16.384Z,7.20
2018-10-18T11:16:20.240Z,6.03
2018-10-18T11:17:24.305Z,5.80
2018-10-18T11:18:28.482Z,6.17
2018-10-18T11:19:32.533Z,6.90
2018-10-18T11:20:36.520Z,5.22
2018-10-18T11:21:40.539Z,6.85
2018-10-18T11:22:44.627Z,5.55
2018-10-18T11:23:48.703Z,5.90
2018-10-18T11:24:52.765Z,6.78
2018-10-18T11:25:56.842Z,5.70
2018-10-18T11:27:00.878Z,5.45
2018-10-18T11:28:04.928Z,6.22
2018-10-18T11:29:08.871Z,5.72
2018-10-18T11:30:13.014Z,5.80
2018-10-18T11:31:16.987Z,5.70
2018-10-18T11:32:20.975Z,6.10
2018-10-18T11:33:24.956Z,6.15
2018-10-18T11:34:29.005Z,5.50
2018-10-18T11:35:33.147Z,5.08
2018-10-18T11:36:37.125Z,4.75
2018-10-18T11:37:41.271Z,4.95
2018-10-18T11:38:45.248Z,6.30
2018-10-18T11:39:49.275Z,4.87
2018-10-18T11:40:53.371Z,4.83
2018-10-18T11:41:57.566Z,4.35
2018-10-18T11:43:01.478Z,4.78
2018-10-18T11:44:05.760Z,4.37
2018-10-18T11:45:09.852Z,4.65
2018-10-18T11:46:13.963Z,5.35
2018-10-18T11:47:18.036Z,5.00
2018-10-18T11:48:22.093Z,4.75
2018-10-18T11:49:26.150Z,4.70
2018-10-18T11:50:30.212Z,4.67
2018-10-18T11:51:34.331Z,4.35
2018-10-18T11:52:38.546Z,4.05
2018-10-18T11:53:42.698Z,3.12
2018-10-18T11:54:46.724Z,3.40
2018-10-18T11:55:50.848Z,3.65
2018-10-18T11:56:54.988Z,4.25
2018-10-18T11:57:59.137Z,3.45
2018-10-18T11:59:03.562Z,4.90
2018-10-18T12:00:07.529Z,3.60
2018-10-18T12:01:11.655Z,3.85
2018-10-18T12:02:15.799Z,3.67
2018-10-18T12:03:19.844Z,3.55
2018-10-18T12:04:23.986Z,4.50
2018-10-18T12:05:28.089Z,4.33
2018-10-18T12:06:32.098Z,3.67
2018-10-18T12:07:36.179Z,3.45
2018-10-18T12:08:40.268Z,3.77
2018-10-18T12:09:44.334Z,3.60
2018-10-18T12:10:48.491Z,3.25
2018-10-18T12:11:52.621Z,3.60
2018-10-18T12:12:56.643Z,3.70
2018-10-18T12:14:01.200Z,3.47
2018-10-18T12:15:05.689Z,3.58
2018-10-18T12:16:09.817Z,3.65
2018-10-18T12:17:13.947Z,3.52
2018-10-18T12:18:17.941Z,3.58
2018-10-18T12:19:22.012Z,3.92
2018-10-18T12:20:26.081Z,4.12
2018-10-18T12:21:30.482Z,3.60
2018-10-18T12:22:34.520Z,3.83
2018-10-18T12:23:38.519Z,3.62
2018-10-18T12:24:43.036Z,3.80
2018-10-18T12:25:47.154Z,4.30
2018-10-18T12:26:51.281Z,4.50
2018-10-18T12:27:55.265Z,3.98
2018-10-18T12:28:59.452Z,3.45
2018-10-18T12:30:03.933Z,3.30
2018-10-18T12:31:08.002Z,3.75
2018-10-18T12:32:12.124Z,3.85
2018-10-18T12:33:16.572Z,4.55
2018-10-18T12:34:20.700Z,3.85
2018-10-18T12:35:24.768Z,4.25
2018-10-18T12:36:28.820Z,5.97
2018-10-18T12:37:32.881Z,4.67
2018-10-18T12:38:36.994Z,4.35
2018-10-18T12:39:41.210Z,4.15
2018-10-18T12:40:45.251Z,4.37
2018-10-18T12:41:49.277Z,3.75
2018-10-18T12:42:53.313Z,4.05
2018-10-18T12:43:57.524Z,4.05
2018-10-18T12:45:01.583Z,4.08
2018-10-18T12:46:05.968Z,4.47
2018-10-18T12:47:11.167Z,3.65
2018-10-18T12:48:15.377Z,4.70
2018-10-18T12:49:19.330Z,4.53
2018-10-18T12:50:23.433Z,4.83
2018-10-18T12:51:27.447Z,5.00
2018-10-18T12:52:31.476Z,4.50
2018-10-18T12:53:35.579Z,4.60
2018-10-18T12:54:39.906Z,4.40
2018-10-18T12:55:43.974Z,4.30
2018-10-18T12:56:47.976Z,4.03
2018-10-18T12:57:52.100Z,4.20
2018-10-18T12:58:56.113Z,4.50
2018-10-18T13:00:00.627Z,4.40
2018-10-18T13:01:05.038Z,4.65
2018-10-18T13:02:09.147Z,4.47
2018-10-18T13:03:13.125Z,4.25
2018-10-18T13:04:17.161Z,4.70
2018-10-18T13:05:21.255Z,5.08
2018-10-18T13:06:25.497Z,4.05
2018-10-18T13:07:29.551Z,3.83
2018-10-18T13:08:33.933Z,4.55
2018-10-18T13:09:37.947Z,4.42
2018-10-18T13:10:41.986Z,4.28
2018-10-18T13:11:46.089Z,4.85
2018-10-18T13:12:50.164Z,5.83
2018-10-18T13:13:54.235Z,4.55
2018-10-18T13:14:58.344Z,5.47
2018-10-18T13:16:02.442Z,4.47
2018-10-18T13:17:06.775Z,5.03
2018-10-18T13:18:10.915Z,5.20
2018-10-18T13:19:14.940Z,4.50
2018-10-18T13:20:19.363Z,4.53
2018-10-18T13:21:23.471Z,4.03
2018-10-18T13:22:27.503Z,3.90
2018-10-18T13:23:31.567Z,3.92
2018-10-18T13:24:35.643Z,4.30
2018-10-18T13:25:39.955Z,4.28
2018-10-18T13:26:44.051Z,4.40
2018-10-18T13:27:48.083Z,4.30
2018-10-18T13:28:52.076Z,4.30
2018-10-18T13:29:56.188Z,5.58
2018-10-18T13:31:00.161Z,4.55
2018-10-18T13:32:04.368Z,4.40
2018-10-18T13:33:08.397Z,5.37
2018-10-18T13:34:12.612Z,4.78
2018-10-18T13:35:16.567Z,5.10
2018-10-18T13:36:20.630Z,4.70
2018-10-18T13:37:24.691Z,5.22
2018-10-18T13:38:28.764Z,5.92
2018-10-18T13:39:32.817Z,5.08
2018-10-18T13:40:36.944Z,5.50
2018-10-18T13:41:40.912Z,5.92
2018-10-18T13:42:44.996Z,7.83
2018-10-18T13:43:49.126Z,7.75
2018-10-18T13:44:53.215Z,8.53
2018-10-18T13:45:57.205Z,7.92
2018-10-18T13:47:01.275Z,9.05
2018-10-18T13:48:05.730Z,10.25
2018-10-18T13:49:09.853Z,8.83
2018-10-18T13:50:14.020Z,9.40
2018-10-18T13:51:18.198Z,8.78
2018-10-18T13:52:22.637Z,9.65
2018-10-18T13:53:26.632Z,9.98
2018-10-18T13:54:30.726Z,8.93
2018-10-18T13:55:34.763Z,8.95